Time;durP1;ratioP1;P1;durP2;ratioP2;P2;SDS_P1;SDS_P2;PMS_P1;PMS_P2;Temp;Humidity;BMP_temperature;BMP_pressure;BME280_temperature;BME280_humidity;BME280_pressure;Samples;Min_cycle;Max_cycle;Signal;HPM_P1;HPM_P2
2022/04/28 00:00:50;;;;;;;12.55;9.38;;;7.70;99.90;;;;;;5090840;28;20177;-66
2022/04/28 00:03:18;;;;;;;15.20;9.43;;;7.70;99.90;;;;;;5105685;28;20047;-66
2022/04/28 00:05:45;;;;;;;15.48;11.23;;;7.70;99.90;;;;;;5092935;28;20054;-67
2022/04/28 00:08:14;;;;;;;17.73;11.07;;;7.70;99.90;;;;;;5107201;28;20448;-66
2022/04/28 00:10:41;;;;;;;14.32;9.27;;;7.60;99.90;;;;;;5093138;28;20040;-65
2022/04/28 00:13:11;;;;;;;15.75;9.55;;;7.60;99.90;;;;;;5106525;28;20073;-66
2022/04/28 00:15:39;;;;;;;14.38;9.95;;;7.50;99.90;;;;;;5106532;28;20044;-67
2022/04/28 00:18:07;;;;;;;14.85;10.35;;;7.50;99.90;;;;;;5100414;28;20043;-66
2022/04/28 00:20:34;;;;;;;15.23;10.60;;;7.40;99.90;;;;;;5091616;28;20075;-66
2022/04/28 00:23:02;;;;;;;15.32;10.65;;;7.40;99.90;;;;;;5104636;28;20043;-66
2022/04/28 00:25:29;;;;;;;16.20;11.00;;;7.40;99.90;;;;;;5111036;28;20444;-66
2022/04/28 00:27:57;;;;;;;14.23;10.65;;;7.40;99.90;;;;;;5111309;28;20051;-66
2022/04/28 00:30:24;;;;;;;14.80;10.15;;;7.30;99.90;;;;;;5091828;28;20051;-65
2022/04/28 00:32:52;;;;;;;15.02;10.70;;;7.30;99.90;;;;;;5109601;28;20119;-65
2022/04/28 00:35:21;;;;;;;15.35;11.25;;;7.20;99.90;;;;;;5103083;27;20058;-66
2022/04/28 00:37:48;;;;;;;13.05;10.48;;;7.20;99.90;;;;;;5100448;28;20577;-65
2022/04/28 00:40:15;;;;;;;14.82;11.18;;;7.20;99.90;;;;;;5109323;28;20073;-66
2022/04/28 00:42:43;;;;;;;14.43;10.57;;;7.10;99.90;;;;;;5099382;28;20043;-66
2022/04/28 00:45:10;;;;;;;14.00;9.27;;;7.10;99.90;;;;;;5108137;28;20036;-66
2022/04/28 00:50:38;;;;;;;12.82;9.50;;;7.00;99.90;;;;;;5109896;28;20130;-66
2022/04/28 00:53:13;;;;;;;17.30;10.35;;;7.00;99.90;;;;;;5096477;28;20403;-66
2022/04/28 00:55:41;;;;;;;12.98;9.63;;;7.00;99.90;;;;;;5107556;28;20043;-66
2022/04/28 00:58:10;;;;;;;14.70;9.75;;;6.90;99.90;;;;;;5089994;28;20093;-66
2022/04/28 01:00:41;;;;;;;12.65;9.75;;;6.90;99.90;;;;;;5097306;28;20047;-66
2022/04/28 01:03:12;;;;;;;17.27;11.18;;;6.90;99.90;;;;;;5106262;28;20487;-66
2022/04/28 01:05:41;;;;;;;17.42;11.13;;;6.80;99.90;;;;;;5093057;28;20036;-66
2022/04/28 01:08:09;;;;;;;14.13;10.65;;;6.80;99.90;;;;;;5109338;28;20048;-66
2022/04/28 01:10:37;;;;;;;17.70;10.90;;;6.80;99.90;;;;;;5087812;28;20407;-65
2022/04/28 01:13:05;;;;;;;16.48;11.07;;;6.80;99.90;;;;;;5098470;28;20044;-66
2022/04/28 01:15:46;;;;;;;21.40;10.63;;;6.80;99.90;;;;;;5100928;28;20055;-66
2022/04/28 01:18:15;;;;;;;13.07;10.40;;;6.70;99.90;;;;;;5107258;28;20051;-66
2022/04/28 01:20:43;;;;;;;14.68;9.95;;;6.70;99.90;;;;;;5097449;28;20126;-66
2022/04/28 01:23:11;;;;;;;14.00;10.13;;;6.60;99.90;;;;;;5108207;28;20413;-66
2022/04/28 01:25:40;;;;;;;17.10;10.88;;;6.60;99.90;;;;;;5107941;28;20039;-66
2022/04/28 01:28:08;;;;;;;14.55;10.43;;;6.60;99.90;;;;;;5101138;28;20135;-66
2022/04/28 01:30:37;;;;;;;15.27;11.32;;;6.60;99.90;;;;;;5105696;28;20463;-66
2022/04/28 01:33:05;;;;;;;20.73;10.70;;;6.50;99.90;;;;;;5100994;27;20071;-65
2022/04/28 01:35:33;;;;;;;13.63;9.82;;;6.50;99.90;;;;;;5104141;28;20047;-66
2022/04/28 01:38:02;;;;;;;16.08;10.20;;;6.50;99.90;;;;;;5091390;28;20075;-66
2022/04/28 01:40:30;;;;;;;15.50;10.90;;;6.50;99.90;;;;;;5106721;28;20118;-66
2022/04/28 01:43:00;;;;;;;15.90;10.45;;;6.40;99.90;;;;;;5094599;28;20046;-65
2022/04/28 01:45:28;;;;;;;16.25;11.00;;;6.50;99.90;;;;;;5087239;28;20582;-66
2022/04/28 01:48:05;;;;;;;17.05;10.65;;;6.40;99.90;;;;;;5093008;28;20593;-66
2022/04/28 01:56:42;;;;;;;18.70;11.93;;;6.40;99.90;;;;;;5087312;28;20131;-66
2022/04/28 01:59:28;;;;;;;17.83;11.60;;;6.40;99.90;;;;;;5107577;27;20134;-65
2022/04/28 02:02:31;;;;;;;14.95;10.27;;;6.40;99.90;;;;;;5092695;28;20048;-65
2022/04/28 02:05:04;;;;;;;16.60;11.77;;;6.30;99.90;;;;;;5089394;28;20528;-65
2022/04/28 02:07:32;;;;;;;15.80;10.65;;;6.30;99.90;;;;;;5089827;28;20040;-65
2022/04/28 02:10:00;;;;;;;14.55;10.93;;;6.30;99.90;;;;;;5087626;28;20119;-66
2022/04/28 02:12:28;;;;;;;17.40;11.80;;;6.30;99.90;;;;;;5086437;28;20039;-65
2022/04/28 02:15:13;;;;;;;14.73;10.30;;;6.20;99.90;;;;;;5089771;28;20466;-65
2022/04/28 02:17:43;;;;;;;16.10;11.00;;;6.20;99.90;;;;;;5097976;28;20059;-65
2022/04/28 02:20:12;;;;;;;18.42;11.70;;;6.20;99.90;;;;;;5070075;28;20071;-65
2022/04/28 02:22:41;;;;;;;16.02;11.30;;;6.10;99.90;;;;;;5087542;28;20072;-65
2022/04/28 02:25:10;;;;;;;16.45;11.60;;;6.10;99.90;;;;;;5082234;28;20050;-65
2022/04/28 02:27:37;;;;;;;16.55;10.63;;;6.10;99.90;;;;;;5087295;28;20044;-65
2022/04/28 02:30:06;;;;;;;17.83;11.50;;;6.00;99.90;;;;;;5088057;28;20352;-65
2022/04/28 02:35:23;;;;;;;18.30;12.77;;;5.90;99.90;;;;;;5087031;28;20526;-66
2022/04/28 02:37:51;;;;;;;24.80;14.63;;;5.90;99.90;;;;;;5087302;28;20148;-65
2022/04/28 02:40:18;;;;;;;22.75;13.82;;;5.90;99.90;;;;;;5101185;28;20506;-66
2022/04/28 02:42:46;;;;;;;17.20;12.57;;;5.90;99.90;;;;;;5084633;28;20542;-66
2022/04/28 02:45:13;;;;;;;19.88;13.57;;;5.80;99.90;;;;;;5087738;28;20049;-66
2022/04/28 02:47:49;;;;;;;22.75;14.20;;;5.80;99.90;;;;;;5085465;28;20543;-66
2022/04/28 02:50:16;;;;;;;23.95;13.07;;;5.80;99.90;;;;;;5097177;28;20043;-64
2022/04/28 02:52:43;;;;;;;18.95;13.52;;;5.80;99.90;;;;;;5090483;28;20044;-65
2022/04/28 02:55:11;;;;;;;20.92;14.07;;;5.70;99.90;;;;;;5088879;28;20132;-65
2022/04/28 02:57:38;;;;;;;18.95;14.02;;;5.70;99.90;;;;;;5089568;28;20070;-65
2022/04/28 03:00:08;;;;;;;17.75;12.27;;;5.70;99.90;;;;;;5102408;28;20052;-65
2022/04/28 03:02:48;;;;;;;18.70;12.63;;;5.70;99.90;;;;;;5088365;28;20036;-65
2022/04/28 03:05:15;;;;;;;20.90;13.55;;;5.60;99.90;;;;;;5097794;28;20079;-65
2022/04/28 03:10:50;;;;;;;17.10;12.60;;;5.50;99.90;;;;;;5097071;28;20047;-65
2022/04/28 03:13:24;;;;;;;17.98;11.68;;;5.50;99.90;;;;;;5093162;28;20492;-65
2022/04/28 03:15:56;;;;;;;18.10;12.15;;;5.50;99.90;;;;;;5105203;28;20047;-65
2022/04/28 03:18:44;;;;;;;17.55;11.80;;;5.40;99.90;;;;;;5105416;28;20112;-65
2022/04/28 03:21:13;;;;;;;18.75;12.55;;;5.40;99.90;;;;;;5108949;28;20158;-65
2022/04/28 03:23:40;;;;;;;19.63;12.85;;;5.40;99.90;;;;;;5100788;28;20055;-65
2022/04/28 03:26:11;;;;;;;21.13;13.50;;;5.30;99.90;;;;;;5100632;28;20383;-65
2022/04/28 03:28:39;;;;;;;24.77;15.18;;;5.30;99.90;;;;;;5109685;28;20042;-65
2022/04/28 03:31:08;;;;;;;22.52;14.38;;;5.30;99.90;;;;;;5105943;28;20032;-65
2022/04/28 03:34:14;;;;;;;22.67;13.32;;;5.20;99.90;;;;;;5086654;28;20043;-64
2022/04/28 03:36:51;;;;;;;20.25;13.15;;;5.20;99.90;;;;;;5105535;28;20190;-65
2022/04/28 03:39:26;;;;;;;19.67;13.38;;;5.10;99.90;;;;;;5110113;28;20533;-65
2022/04/28 03:41:53;;;;;;;18.60;12.98;;;5.10;99.90;;;;;;5111100;28;20055;-65
2022/04/28 03:44:21;;;;;;;21.00;13.02;;;5.10;99.90;;;;;;5101971;28;20530;-65
2022/04/28 03:46:49;;;;;;;21.65;13.77;;;5.00;99.90;;;;;;5104847;28;20536;-65
2022/04/28 03:49:16;;;;;;;18.98;13.43;;;5.00;99.90;;;;;;5107163;28;20122;-65
2022/04/28 03:51:44;;;;;;;21.58;15.02;;;5.00;99.90;;;;;;5110854;28;20049;-66
2022/04/28 03:54:11;;;;;;;27.42;17.25;;;5.00;99.90;;;;;;5092318;28;20047;-65
2022/04/28 03:56:39;;;;;;;23.33;15.52;;;5.00;99.90;;;;;;5104367;28;20058;-65
2022/04/28 03:59:09;;;;;;;23.85;15.68;;;5.00;99.90;;;;;;5099960;28;20040;-66
2022/04/28 04:01:57;;;;;;;24.23;16.90;;;5.00;99.90;;;;;;5100928;28;20082;-66
2022/04/28 04:04:25;;;;;;;20.38;14.32;;;5.00;99.90;;;;;;5088606;28;20044;-66
2022/04/28 04:06:59;;;;;;;23.83;14.30;;;5.00;99.90;;;;;;5105400;28;20033;-65
2022/04/28 04:09:35;;;;;;;18.55;13.43;;;5.00;99.90;;;;;;5100739;28;20490;-66
2022/04/28 04:12:15;;;;;;;18.23;13.68;;;5.00;99.90;;;;;;5108863;28;20044;-66
2022/04/28 04:15:04;;;;;;;21.45;13.45;;;5.00;99.90;;;;;;5081232;28;20179;-66
2022/04/28 04:17:52;;;;;;;21.90;13.63;;;5.00;99.90;;;;;;5106925;28;20435;-66
2022/04/28 04:20:22;;;;;;;20.65;13.55;;;5.00;99.90;;;;;;5105142;28;20405;-66
2022/04/28 04:22:49;;;;;;;24.90;17.20;;;5.10;99.90;;;;;;5111353;28;20039;-66
2022/04/28 04:25:16;;;;;;;24.15;15.60;;;5.10;99.90;;;;;;5109603;28;20050;-66
2022/04/28 04:27:48;;;;;;;23.40;14.70;;;5.20;99.90;;;;;;5110693;28;20039;-66
2022/04/28 04:33:21;;;;;;;22.23;14.30;;;5.20;99.90;;;;;;5122679;27;20578;-66
2022/04/28 04:35:49;;;;;;;18.95;12.18;;;5.30;99.90;;;;;;5108099;28;20109;-66
2022/04/28 04:38:17;;;;;;;18.92;12.02;;;5.30;99.90;;;;;;5110227;28;20109;-66
2022/04/28 04:40:49;;;;;;;18.67;13.20;;;5.40;99.90;;;;;;5110660;28;20554;-66
2022/04/28 04:43:16;;;;;;;18.85;12.65;;;5.40;99.90;;;;;;5106638;28;20038;-66
2022/04/28 04:45:44;;;;;;;19.23;12.73;;;5.50;99.90;;;;;;5095031;28;20039;-67
2022/04/28 04:48:19;;;;;;;21.23;12.88;;;5.60;99.90;;;;;;5100468;28;20038;-66
2022/04/28 04:50:49;;;;;;;19.58;13.10;;;5.70;99.90;;;;;;5094427;28;20036;-67
2022/04/28 04:53:39;;;;;;;16.55;11.15;;;5.70;99.90;;;;;;5097206;28;20104;-66
2022/04/28 04:56:06;;;;;;;19.75;11.05;;;5.80;99.90;;;;;;5107775;28;20546;-66
2022/04/28 04:58:33;;;;;;;15.35;11.55;;;5.80;99.90;;;;;;5101385;28;20139;-66
2022/04/28 05:01:04;;;;;;;18.52;12.50;;;5.90;99.90;;;;;;5089509;28;20040;-66
2022/04/28 05:03:34;;;;;;;18.38;10.77;;;6.00;99.90;;;;;;5099529;28;20055;-66
2022/04/28 05:06:01;;;;;;;15.25;11.00;;;6.00;99.90;;;;;;5089993;28;20036;-65
2022/04/28 05:08:45;;;;;;;20.35;12.35;;;6.10;99.90;;;;;;5091630;28;20044;-65
2022/04/28 05:11:13;;;;;;;17.48;11.43;;;6.20;99.90;;;;;;5102926;28;20192;-66
2022/04/28 05:13:46;;;;;;;14.63;10.70;;;6.30;99.90;;;;;;5095532;28;20073;-66
2022/04/28 05:16:15;;;;;;;12.60;8.85;;;6.30;99.90;;;;;;5103727;28;20119;-66
2022/04/28 05:19:05;;;;;;;17.25;10.15;;;6.40;99.90;;;;;;5103064;28;20090;-65
2022/04/28 05:21:51;;;;;;;14.68;9.52;;;6.50;99.90;;;;;;5099641;28;20082;-66
2022/04/28 05:24:37;;;;;;;16.15;10.18;;;6.60;99.90;;;;;;5099884;28;20035;-65
2022/04/28 05:27:23;;;;;;;14.52;10.10;;;6.60;99.90;;;;;;5107455;28;20042;-65
2022/04/28 05:29:50;;;;;;;14.27;9.80;;;6.70;99.90;;;;;;5109470;28;20047;-66
2022/04/28 05:32:30;;;;;;;12.73;9.73;;;6.80;99.90;;;;;;5103143;28;20039;-66
2022/04/28 05:35:16;;;;;;;13.38;9.20;;;6.80;99.90;;;;;;5108008;27;20556;-65
2022/04/28 05:37:44;;;;;;;12.43;9.82;;;6.80;99.90;;;;;;5103162;27;20056;-66
2022/04/28 05:40:13;;;;;;;13.52;9.43;;;6.90;99.90;;;;;;5101674;28;20123;-66
2022/04/28 05:45:41;;;;;;;12.15;8.57;;;7.00;99.90;;;;;;5097401;28;20094;-66
2022/04/28 05:48:14;;;;;;;11.43;8.57;;;7.10;99.90;;;;;;5090825;28;20040;-66
2022/04/28 05:50:44;;;;;;;12.23;9.15;;;7.20;99.90;;;;;;5093256;28;20078;-66
2022/04/28 05:53:13;;;;;;;14.30;8.90;;;7.20;99.90;;;;;;5095337;28;20462;-66
2022/04/28 05:55:43;;;;;;;12.88;10.02;;;7.30;99.90;;;;;;5100379;28;20048;-66
2022/04/28 05:58:11;;;;;;;13.27;9.63;;;7.50;99.90;;;;;;5094231;27;20093;-66
2022/04/28 06:00:46;;;;;;;10.85;8.60;;;7.60;99.90;;;;;;5096357;28;20511;-66
2022/04/28 06:03:15;;;;;;;12.65;9.15;;;7.70;99.90;;;;;;5103440;28;20047;-67
2022/04/28 06:05:57;;;;;;;12.43;8.65;;;7.80;99.90;;;;;;5087733;28;20181;-66
2022/04/28 06:08:25;;;;;;;15.35;10.20;;;7.80;99.90;;;;;;5102896;28;20142;-67
2022/04/28 06:10:53;;;;;;;11.85;9.32;;;7.90;99.90;;;;;;5108809;28;20390;-66
2022/04/28 06:13:21;;;;;;;12.15;8.77;;;8.00;99.90;;;;;;5091608;28;20052;-67
2022/04/28 06:16:07;;;;;;;10.38;8.43;;;8.10;99.90;;;;;;5086957;28;20043;-67
2022/04/28 06:18:46;;;;;;;11.95;8.95;;;8.20;99.90;;;;;;5092500;28;20118;-67
2022/04/28 06:21:33;;;;;;;11.60;8.27;;;8.30;99.90;;;;;;5091634;28;20044;-66
2022/04/28 06:24:01;;;;;;;12.55;9.43;;;8.40;99.90;;;;;;5096902;28;20112;-66
2022/04/28 06:26:29;;;;;;;11.38;8.32;;;8.50;99.90;;;;;;5098175;28;20116;-66
2022/04/28 06:28:56;;;;;;;11.00;8.50;;;8.50;99.90;;;;;;5097851;28;20035;-66
2022/04/28 06:31:29;;;;;;;11.20;8.65;;;8.70;99.90;;;;;;5093896;28;20040;-67
2022/04/28 06:34:29;;;;;;;12.02;8.43;;;8.80;99.90;;;;;;5032810;28;20064;-67
2022/04/28 06:36:56;;;;;;;10.45;7.72;;;8.90;99.90;;;;;;5028625;28;20457;-67
2022/04/28 06:39:27;;;;;;;11.45;8.75;;;9.00;99.90;;;;;;4995608;28;20061;-67
2022/04/28 06:41:55;;;;;;;15.88;8.80;;;9.10;99.90;;;;;;5013782;28;20045;-66
2022/04/28 06:44:42;;;;;;;11.85;8.93;;;9.20;99.90;;;;;;5039048;28;20085;-67
2022/04/28 06:47:28;;;;;;;14.15;8.98;;;9.30;99.90;;;;;;5041173;28;20052;-66
2022/04/28 06:50:14;;;;;;;11.52;9.20;;;9.40;99.90;;;;;;5045455;28;20057;-65
2022/04/28 06:53:02;;;;;;;11.52;9.00;;;9.50;99.90;;;;;;5021673;28;20076;-66
2022/04/28 06:55:32;;;;;;;12.13;8.77;;;9.60;99.90;;;;;;5017012;28;20210;-66
2022/04/28 06:58:01;;;;;;;14.75;8.40;;;9.70;99.90;;;;;;5007685;28;20050;-66
2022/04/28 07:00:33;;;;;;;13.05;7.95;;;9.80;99.90;;;;;;5040802;28;20048;-66
2022/04/28 07:03:01;;;;;;;11.90;9.13;;;9.90;99.90;;;;;;5031562;28;20110;-66
2022/04/28 07:05:33;;;;;;;10.43;7.32;;;10.10;99.90;;;;;;5027077;28;20049;-66
2022/04/28 07:08:03;;;;;;;13.23;9.20;;;10.20;99.90;;;;;;5025338;28;20675;-66
2022/04/28 07:10:37;;;;;;;12.55;8.88;;;10.30;99.90;;;;;;5080288;28;20431;-66
2022/04/28 07:13:04;;;;;;;12.88;8.85;;;10.40;99.90;;;;;;5100442;28;20040;-66
2022/04/28 07:15:41;;;;;;;17.45;11.27;;;10.50;99.90;;;;;;5107322;28;20040;-66
2022/04/28 07:18:27;;;;;;;11.38;8.50;;;10.60;99.90;;;;;;5107403;28;20047;-66
2022/04/28 07:20:55;;;;;;;12.80;9.40;;;10.80;99.90;;;;;;5095387;28;20039;-66
2022/04/28 07:23:24;;;;;;;13.05;8.57;;;10.90;99.90;;;;;;5099562;28;20094;-66
2022/04/28 07:25:51;;;;;;;13.65;9.07;;;11.00;99.90;;;;;;5106103;28;20494;-66
2022/04/28 07:28:18;;;;;;;13.85;7.68;;;11.00;99.90;;;;;;5106130;28;20544;-66
2022/04/28 07:31:02;;;;;;;14.25;8.77;;;11.10;99.90;;;;;;5103066;28;20047;-66
2022/04/28 07:33:49;;;;;;;15.00;9.13;;;11.20;99.90;;;;;;5102818;28;20523;-65
2022/04/28 07:36:34;;;;;;;14.25;7.78;;;11.40;99.90;;;;;;5106009;28;20077;-66
2022/04/28 07:39:20;;;;;;;11.98;8.23;;;11.50;99.90;;;;;;5105911;28;20036;-65
2022/04/28 07:42:06;;;;;;;11.68;8.68;;;11.60;99.90;;;;;;5109029;28;20179;-65
2022/04/28 07:44:37;;;;;;;13.18;7.32;;;11.60;99.90;;;;;;5093196;28;20040;-65
2022/04/28 07:47:06;;;;;;;12.20;8.32;;;11.70;99.90;;;;;;5098259;28;20087;-65
2022/04/28 07:49:40;;;;;;;11.27;7.82;;;11.80;99.90;;;;;;5096792;28;20071;-66
2022/04/28 07:52:09;;;;;;;13.48;8.82;;;11.90;99.90;;;;;;5099572;28;20044;-65
2022/04/28 07:54:37;;;;;;;15.75;10.15;;;12.00;99.90;;;;;;5110016;28;20084;-65
2022/04/28 07:57:05;;;;;;;11.38;8.55;;;12.10;99.90;;;;;;5111867;28;20134;-65
2022/04/28 07:59:33;;;;;;;13.55;8.95;;;12.20;99.90;;;;;;5105236;27;20044;-66
2022/04/28 08:02:14;;;;;;;14.23;9.77;;;12.30;99.90;;;;;;5086119;28;20070;-65
2022/04/28 08:04:45;;;;;;;11.82;8.43;;;12.40;99.90;;;;;;5106723;28;20096;-65
2022/04/28 08:07:14;;;;;;;10.95;7.97;;;12.60;99.90;;;;;;5103452;28;20444;-65
2022/04/28 08:09:45;;;;;;;11.75;8.68;;;12.60;99.90;;;;;;5110591;28;20035;-64
2022/04/28 08:12:18;;;;;;;12.32;8.40;;;12.70;99.90;;;;;;5101931;28;20447;-65
2022/04/28 08:15:21;;;;;;;12.18;8.70;;;12.90;99.90;;;;;;5117022;27;20058;-65
2022/04/28 08:17:48;;;;;;;12.93;8.82;;;13.10;99.90;;;;;;5098230;28;20349;-67
2022/04/28 08:20:15;;;;;;;10.63;7.38;;;13.20;99.90;;;;;;5108891;28;20047;-67
2022/04/28 08:22:43;;;;;;;13.05;7.95;;;13.20;99.90;;;;;;5109759;28;20096;-67
2022/04/28 08:25:11;;;;;;;13.07;8.18;;;13.30;99.90;;;;;;5109748;28;20119;-66
2022/04/28 08:27:38;;;;;;;11.82;7.63;;;13.50;99.90;;;;;;5107548;28;20502;-66
2022/04/28 08:30:07;;;;;;;12.07;7.85;;;13.60;99.90;;;;;;5109106;28;20456;-66
2022/04/28 08:32:34;;;;;;;13.13;7.85;;;13.80;99.90;;;;;;5084669;28;20094;-67
2022/04/28 08:35:01;;;;;;;11.13;7.55;;;14.00;99.90;;;;;;5102244;28;20146;-67
2022/04/28 08:37:29;;;;;;;12.15;7.05;;;14.10;99.90;;;;;;5109011;28;20046;-67
2022/04/28 08:39:57;;;;;;;10.38;7.18;;;14.20;99.90;;;;;;5112464;28;20043;-67
2022/04/28 08:42:26;;;;;;;11.30;7.38;;;14.20;99.90;;;;;;5103100;28;20114;-67
2022/04/28 08:45:04;;;;;;;12.57;6.93;;;14.40;99.90;;;;;;5103482;28;20491;-66
2022/04/28 08:47:58;;;;;;;11.50;7.22;;;14.50;99.90;;;;;;5096200;28;20140;-66
2022/04/28 08:50:44;;;;;;;10.32;6.82;;;14.70;99.90;;;;;;5110422;28;20062;-65
2022/04/28 08:53:13;;;;;;;10.05;6.50;;;14.70;99.90;;;;;;5107698;28;20044;-66
2022/04/28 08:55:43;;;;;;;8.75;6.22;;;14.80;99.90;;;;;;5108305;28;20512;-66
2022/04/28 08:58:11;;;;;;;7.95;5.63;;;14.90;99.90;;;;;;5093483;28;20526;-66
2022/04/28 09:00:44;;;;;;;9.98;6.05;;;15.10;99.90;;;;;;5097410;28;20040;-66
2022/04/28 09:03:43;;;;;;;10.65;6.28;;;15.20;99.90;;;;;;5106359;28;20042;-66
2022/04/28 09:07:09;;;;;;;8.27;5.57;;;15.30;99.90;;;;;;5041487;28;20044;-66
2022/04/28 09:09:55;;;;;;;10.50;5.40;;;15.40;99.90;;;;;;5047313;28;20052;-67
2022/04/28 09:16:13;;;;;;;9.70;5.40;;;15.60;99.90;;;;;;5006371;28;20046;-65
2022/04/28 09:18:41;;;;;;;7.82;5.22;;;15.70;99.90;;;;;;4989206;28;20334;-65
2022/04/28 09:21:09;;;;;;;9.75;5.05;;;15.90;99.90;;;;;;4997905;28;20046;-66
2022/04/28 09:23:36;;;;;;;8.30;4.82;;;16.00;99.90;;;;;;5005585;28;20053;-66
2022/04/28 09:26:07;;;;;;;13.70;6.53;;;16.10;99.90;;;;;;4990864;28;20136;-66
2022/04/28 09:28:38;;;;;;;8.57;6.40;;;16.20;99.90;;;;;;4991212;28;20057;-66
2022/04/28 09:31:09;;;;;;;8.80;5.68;;;16.20;99.90;;;;;;5006485;28;20065;-66
2022/04/28 09:34:14;;;;;;;12.15;4.38;;;16.50;99.90;;;;;;4967186;28;20494;-65
2022/04/28 09:37:01;;;;;;;;;;;16.90;99.90;;;;;;4971920;28;20418;-66
2022/04/28 09:42:31;;;;;;;7.22;4.63;;;17.60;99.90;;;;;;5006370;28;20493;-66
2022/04/28 09:45:02;;;;;;;6.18;4.05;;;17.90;99.90;;;;;;5006826;28;20064;-67
2022/04/28 09:47:36;;;;;;;8.52;4.00;;;18.20;99.90;;;;;;5024361;28;20073;-66
2022/04/28 09:50:24;;;;;;;6.65;4.38;;;18.30;99.90;;;;;;5010091;28;20638;-66
2022/04/28 09:53:15;;;;;;;7.60;4.85;;;18.70;99.90;;;;;;5014587;28;20116;-66
2022/04/28 09:56:10;;;;;;;9.20;4.72;;;19.00;99.90;;;;;;5010897;28;20145;-65
2022/04/28 09:58:59;;;;;;;8.35;4.22;;;19.30;99.90;;;;;;5026467;28;20049;-66
2022/04/28 10:01:29;;;;;;;6.78;4.75;;;19.40;99.90;;;;;;5008398;28;20045;-64
2022/04/28 10:03:58;;;;;;;7.10;4.78;;;19.70;99.90;;;;;;5009076;28;20140;-66
2022/04/28 10:06:46;;;;;;;7.00;4.03;;;19.80;99.90;;;;;;5009702;28;20528;-66
2022/04/28 10:09:22;;;;;;;7.38;4.18;;;20.10;98.90;;;;;;5032052;28;20718;-67
2022/04/28 10:11:53;;;;;;;8.70;3.70;;;20.10;98.40;;;;;;5086672;28;20118;-66
2022/04/28 10:14:26;;;;;;;6.28;3.53;;;20.40;96.20;;;;;;5087246;28;20462;-66
2022/04/28 10:17:03;;;;;;;5.22;3.50;;;20.50;95.20;;;;;;5090888;28;20494;-66
2022/04/28 10:19:36;;;;;;;6.63;3.85;;;20.50;93.70;;;;;;5097860;28;20473;-66
2022/04/28 10:22:20;;;;;;;4.95;3.50;;;20.70;95.10;;;;;;5093404;28;20044;-66
2022/04/28 10:33:46;;;;;;;6.40;3.90;;;20.10;93.20;;;;;;5105905;28;20057;-66
2022/04/28 10:36:20;;;;;;;6.32;3.55;;;20.00;93.00;;;;;;5104976;28;20040;-66
2022/04/28 10:39:08;;;;;;;6.75;4.22;;;19.80;93.10;;;;;;5106358;28;20035;-65
2022/04/28 10:41:36;;;;;;;5.90;3.60;;;19.60;93.00;;;;;;5106338;28;20035;-67
2022/04/28 10:44:16;;;;;;;6.07;3.78;;;19.40;92.70;;;;;;5107932;28;20467;-66
2022/04/28 10:46:59;;;;;;;6.03;3.80;;;19.40;94.30;;;;;;5100231;28;20362;-66
2022/04/28 10:49:35;;;;;;;6.38;3.88;;;19.40;92.70;;;;;;5105810;28;20270;-67
2022/04/28 10:52:04;;;;;;;5.70;3.72;;;19.00;92.70;;;;;;5099387;28;20032;-65
2022/04/28 10:55:01;;;;;;;5.70;3.88;;;18.90;93.00;;;;;;5100966;28;20066;-66
2022/04/28 10:57:32;;;;;;;6.70;4.00;;;18.60;93.20;;;;;;5103941;28;20059;-67
2022/04/28 11:00:03;;;;;;;5.68;3.90;;;18.70;92.20;;;;;;5104496;28;20074;-66
2022/04/28 11:02:35;;;;;;;5.53;3.90;;;18.70;93.10;;;;;;5091360;28;20516;-65
2022/04/28 11:05:27;;;;;;;5.82;3.65;;;18.80;92.00;;;;;;5108460;28;20498;-67
2022/04/28 11:07:55;;;;;;;5.63;3.80;;;18.90;92.70;;;;;;5107682;28;20456;-67
2022/04/28 11:10:23;;;;;;;5.50;3.40;;;19.20;92.70;;;;;;5108829;28;20044;-67
2022/04/28 11:12:50;;;;;;;6.80;3.67;;;19.50;92.90;;;;;;5099368;28;20101;-67
2022/04/28 11:15:18;;;;;;;5.28;3.65;;;19.70;91.30;;;;;;5099644;28;20043;-67
2022/04/28 11:17:45;;;;;;;6.63;3.30;;;19.80;91.40;;;;;;5107387;28;20048;-66
2022/04/28 11:20:19;;;;;;;6.40;3.38;;;19.90;91.60;;;;;;5101036;28;20058;-66
2022/04/28 11:22:55;;;;;;;;;;;20.00;92.80;;;;;;5092252;28;20091;-66
2022/04/28 11:25:22;;;;;;;5.03;3.53;;;20.10;92.00;;;;;;5093959;28;20022;-67
2022/04/28 11:27:52;;;;;;;4.75;3.33;;;20.10;92.60;;;;;;5110306;28;20047;-65
2022/04/28 11:30:24;;;;;;;5.95;3.28;;;20.20;91.90;;;;;;5107543;28;20251;-66
2022/04/28 11:32:57;;;;;;;7.10;3.27;;;20.40;91.70;;;;;;5112516;28;20036;-67
2022/04/28 11:35:35;;;;;;;6.25;3.65;;;20.60;91.30;;;;;;5110592;28;20431;-66
2022/04/28 11:38:03;;;;;;;7.00;4.30;;;20.90;90.30;;;;;;5100732;28;20039;-66
2022/04/28 11:40:33;;;;;;;9.10;3.90;;;21.20;92.50;;;;;;5111612;28;20668;-66
2022/04/28 11:43:03;;;;;;;5.97;4.25;;;21.90;91.60;;;;;;5111616;27;20436;-67
2022/04/28 11:45:32;;;;;;;5.97;3.60;;;22.00;85.90;;;;;;5106418;28;20068;-67
2022/04/28 11:48:01;;;;;;;7.25;3.65;;;22.40;90.70;;;;;;5107988;28;20035;-67
2022/04/28 11:50:32;;;;;;;5.53;3.45;;;22.90;83.20;;;;;;5110708;28;20130;-67
2022/04/28 11:53:03;;;;;;;7.18;3.50;;;23.00;84.70;;;;;;5110262;28;20488;-66
2022/04/28 11:55:35;;;;;;;7.32;3.45;;;23.70;90.20;;;;;;5111047;28;20063;-66
2022/04/28 11:58:04;;;;;;;6.35;4.53;;;23.90;82.30;;;;;;5110742;27;20054;-67
2022/04/28 12:00:43;;;;;;;6.60;4.03;;;23.50;82.20;;;;;;5102849;28;20510;-67
2022/04/28 12:03:26;;;;;;;6.15;3.20;;;23.60;81.50;;;;;;5091045;28;20047;-66
2022/04/28 12:05:54;;;;;;;8.18;3.55;;;24.00;81.70;;;;;;5091040;28;20051;-67
2022/04/28 12:08:22;;;;;;;6.13;3.47;;;24.50;81.60;;;;;;5089907;28;20391;-67
2022/04/28 12:19:19;;;;;;;5.28;3.80;;;22.40;81.70;;;;;;5093077;28;20040;-67
2022/04/28 12:19:20;;;;;;;7.38;3.53;;;22.30;87.10;;;;;;5104419;28;20048;-65
2022/04/28 12:21:47;;;;;;;5.13;3.40;;;22.50;86.20;;;;;;5106012;28;20134;-67
2022/04/28 12:24:22;;;;;;;6.60;3.50;;;22.70;84.80;;;;;;5111097;28;20070;-66
2022/04/28 12:26:49;;;;;;;6.45;3.88;;;22.40;82.10;;;;;;5111481;28;20036;-67
2022/04/28 12:29:19;;;;;;;6.00;3.72;;;22.30;82.30;;;;;;5108987;28;20032;-67
2022/04/28 12:31:54;;;;;;;6.20;4.00;;;22.20;84.20;;;;;;5098893;28;20455;-67
2022/04/28 12:34:24;;;;;;;6.78;4.07;;;22.30;82.80;;;;;;5107514;28;20098;-67
2022/04/28 12:36:57;;;;;;;4.78;3.20;;;22.00;82.20;;;;;;5108496;28;20051;-67
2022/04/28 12:39:31;;;;;;;6.00;3.25;;;22.30;84.80;;;;;;5110758;28;20135;-67
2022/04/28 12:42:10;;;;;;;6.45;3.25;;;22.70;81.10;;;;;;5108925;28;20051;-65
2022/04/28 12:44:47;;;;;;;8.63;3.20;;;22.90;79.30;;;;;;5107190;28;20040;-67
2022/04/28 12:47:14;;;;;;;4.82;3.30;;;23.80;80.90;;;;;;5108254;28;20046;-67
2022/04/28 12:49:48;;;;;;;5.80;2.95;;;24.30;77.60;;;;;;5109970;28;20048;-67
2022/04/28 12:52:27;;;;;;;3.78;2.65;;;25.30;81.60;;;;;;5109410;28;20043;-67
2022/04/28 12:55:06;;;;;;;5.63;2.88;;;25.80;73.90;;;;;;5110450;28;20052;-67
2022/04/28 12:57:35;;;;;;;5.63;3.28;;;25.90;72.40;;;;;;5108641;27;20129;-68
2022/04/28 13:00:07;;;;;;;7.25;3.08;;;25.70;72.50;;;;;;5104804;28;20406;-66
2022/04/28 13:02:35;;;;;;;5.28;2.83;;;25.30;69.70;;;;;;5089848;28;20590;-67
2022/04/28 13:05:20;;;;;;;5.47;3.03;;;25.80;70.60;;;;;;5087649;28;20459;-67
2022/04/28 13:08:04;;;;;;;4.97;2.92;;;25.70;70.40;;;;;;5089416;28;20139;-67
2022/04/28 13:10:32;;;;;;;3.92;2.83;;;27.00;72.20;;;;;;5089849;28;20040;-67
2022/04/28 13:13:01;;;;;;;7.78;2.92;;;27.80;71.40;;;;;;5101898;28;20443;-67
2022/04/28 13:15:28;;;;;;;3.88;2.45;;;29.00;69.10;;;;;;5095861;28;20515;-68
2022/04/28 13:17:55;;;;;;;4.15;2.78;;;30.10;66.80;;;;;;5098273;28;20044;-67
2022/04/28 13:20:24;;;;;;;4.50;2.72;;;30.50;63.90;;;;;;5089360;28;20044;-67
2022/04/28 13:22:51;;;;;;;4.13;2.88;;;30.40;62.60;;;;;;5088820;28;20036;-67
2022/04/28 13:25:18;;;;;;;4.95;2.50;;;29.80;60.70;;;;;;5089128;28;20055;-66
2022/04/28 13:27:46;;;;;;;5.32;2.60;;;28.90;60.10;;;;;;5097820;28;20612;-66
2022/04/28 13:30:13;;;;;;;4.72;2.75;;;27.80;60.50;;;;;;5094580;28;20440;-66
2022/04/28 13:32:42;;;;;;;7.63;2.78;;;26.50;62.30;;;;;;5092930;28;20052;-67
2022/04/28 13:35:11;;;;;;;5.75;2.97;;;25.80;62.80;;;;;;5108843;28;20444;-67
2022/04/28 13:37:38;;;;;;;4.65;2.80;;;27.50;63.30;;;;;;5103971;28;20142;-67
2022/04/28 13:40:06;;;;;;;5.40;2.95;;;29.40;60.50;;;;;;5108524;28;20486;-67
2022/04/28 13:42:34;;;;;;;3.85;2.50;;;30.50;60.70;;;;;;5109601;28;20073;-67
2022/04/28 13:45:01;;;;;;;4.43;2.80;;;31.90;56.90;;;;;;5104339;28;20039;-67
2022/04/28 13:47:29;;;;;;;4.13;2.38;;;33.60;55.60;;;;;;5095204;28;20671;-67
2022/04/28 13:49:57;;;;;;;4.95;2.60;;;35.40;54.10;;;;;;5097463;28;20528;-67
2022/04/28 13:52:24;;;;;;;6.07;2.55;;;36.10;53.70;;;;;;5098228;28;20491;-67
2022/04/28 13:54:51;;;;;;;3.90;2.40;;;36.60;52.90;;;;;;5094086;28;20066;-66